Time;durP1;ratioP1;P1;durP2;ratioP2;P2;SDS_P1;SDS_P2;PMS_P1;PMS_P2;Temp;Humidity;BMP_temperature;BMP_pressure;BME280_temperature;BME280_humidity;BME280_pressure;Samples;Min_cycle;Max_cycle;Signal;HPM_P1;HPM_P2
2022/08/08 00:02:08;;;;;;;0.93;0.67;;;;;;;16.33;44.57;98968.03;4969618;28;20285;-54
2022/08/08 00:04:41;;;;;;;1.53;0.90;;;;;;;16.35;44.94;98965.25;4969810;28;20249;-51
2022/08/08 00:07:21;;;;;;;2.60;0.83;;;;;;;16.29;44.64;98966.75;4969943;28;20209;-55
2022/08/08 00:09:55;;;;;;;1.40;0.70;;;;;;;16.29;45.03;98966.75;4972382;28;20225;-53
2022/08/08 00:12:29;;;;;;;1.77;0.70;;;;;;;16.34;44.50;98974.16;4969917;28;20279;-54
2022/08/08 00:15:03;;;;;;;0.97;0.80;;;;;;;16.24;44.68;98963.84;4969753;28;20223;-54
2022/08/08 00:17:40;;;;;;;4.47;0.90;;;;;;;16.22;44.75;98964.03;4969963;28;20216;-53
2022/08/08 00:20:10;;;;;;;4.07;0.80;;;;;;;16.18;44.69;98956.66;4970734;28;20247;-52
2022/08/08 00:22:42;;;;;;;2.60;0.73;;;;;;;16.13;45.00;98965.13;4968773;28;20211;-51
2022/08/08 00:25:16;;;;;;;0.73;0.70;;;;;;;16.06;45.07;98962.34;4970653;28;20592;-53
2022/08/08 00:27:44;;;;;;;2.97;0.80;;;;;;;16.10;45.17;98960.22;4970583;28;20656;-51
2022/08/08 00:30:14;;;;;;;2.13;0.70;;;;;;;16.04;45.50;98955.66;4961429;28;20372;-55
2022/08/08 00:32:44;;;;;;;0.77;0.77;;;;;;;16.03;45.28;98964.53;4954235;28;20313;-54
2022/08/08 00:35:41;;;;;;;1.53;0.77;;;;;;;16.02;45.25;98970.81;4967514;28;20250;-50
2022/08/08 00:38:32;;;;;;;0.80;0.73;;;;;;;15.99;45.53;98974.59;4952694;28;20589;-49
2022/08/08 00:41:29;;;;;;;0.83;0.70;;;;;;;15.88;45.61;98978.47;4969237;28;20302;-50
2022/08/08 00:44:24;;;;;;;1.10;0.73;;;;;;;15.86;45.74;98987.53;4957403;28;20305;-49
2022/08/08 00:47:24;;;;;;;1.67;0.80;;;;;;;16.01;45.86;98985.78;4973986;28;20240;-52
2022/08/08 00:50:24;;;;;;;2.00;0.90;;;;;;;15.93;46.19;98976.13;4930899;28;20792;-52
2022/08/08 00:52:57;;;;;;;2.97;0.90;;;;;;;15.87;46.16;98984.75;4974853;28;20251;-51
2022/08/08 00:55:59;;;;;;;1.10;0.70;;;;;;;15.75;46.62;98979.06;4957160;28;20212;-52
2022/08/08 00:59:13;;;;;;;1.17;0.73;;;;;;;15.74;46.69;98980.03;4973055;28;20951;-51
2022/08/08 01:01:59;;;;;;;1.10;0.73;;;;;;;15.61;47.29;98971.91;4971916;28;20714;-49
2022/08/08 01:05:10;;;;;;;2.43;0.60;;;;;;;15.67;46.51;98973.84;4973437;28;20255;-52
2022/08/08 01:08:30;;;;;;;2.43;0.70;;;;;;;15.54;47.22;98978.88;4977375;28;20198;-50
2022/08/08 01:11:22;;;;;;;2.07;0.80;;;;;;;15.46;47.04;98977.09;4971362;28;20227;-52
2022/08/08 01:14:47;;;;;;;1.90;0.80;;;;;;;15.43;46.91;98978.25;4974055;28;20198;-49
2022/08/08 01:17:55;;;;;;;3.00;0.80;;;;;;;15.38;47.45;98985.84;4894260;29;20272;-50
2022/08/08 01:20:47;;;;;;;1.90;0.80;;;;;;;15.37;47.65;98986.84;4898403;28;20207;-50
2022/08/08 01:23:47;;;;;;;7.53;1.00;;;;;;;15.26;47.40;98982.81;4946273;28;20224;-50
2022/08/08 01:26:35;;;;;;;1.80;0.60;;;;;;;15.20;47.83;98996.66;4946678;28;20213;-53
2022/08/08 01:29:39;;;;;;;1.63;0.67;;;;;;;15.13;48.28;98990.44;4954757;28;20199;-49
2022/08/08 01:32:36;;;;;;;1.63;0.80;;;;;;;15.19;47.71;98987.13;4975635;28;20213;-53
2022/08/08 01:35:45;;;;;;;1.50;0.63;;;;;;;15.16;48.00;98983.00;4973144;28;20213;-52
2022/08/08 01:38:58;;;;;;;1.67;0.60;;;;;;;15.32;48.23;98978.66;4950937;28;20217;-50
2022/08/08 01:41:39;;;;;;;1.07;0.73;;;;;;;15.21;48.23;98982.50;4975289;28;20782;-49
2022/08/08 01:44:25;;;;;;;3.53;0.80;;;;;;;15.12;48.51;98976.44;4959094;28;20238;-51
2022/08/08 01:47:08;;;;;;;1.00;0.80;;;;;;;15.10;48.48;98973.16;4959559;28;20195;-50
2022/08/08 01:49:48;;;;;;;0.73;0.70;;;;;;;15.17;48.89;98971.50;4956181;28;20190;-49
2022/08/08 01:52:31;;;;;;;1.10;0.80;;;;;;;15.11;48.48;98966.91;4960835;28;20252;-49
2022/08/08 01:55:08;;;;;;;1.53;0.70;;;;;;;15.04;48.26;98964.16;4942473;28;20632;-52
2022/08/08 01:57:48;;;;;;;0.80;0.70;;;;;;;14.93;48.57;98969.81;4960665;28;20208;-52
2022/08/08 02:00:20;;;;;;;1.50;0.80;;;;;;;14.93;48.97;98961.09;4971894;28;20295;-49
2022/08/08 02:03:16;;;;;;;0.73;0.63;;;;;;;15.00;48.58;98964.66;4956149;28;20296;-48
2022/08/08 02:05:56;;;;;;;1.23;0.70;;;;;;;15.04;48.20;98965.97;4971800;28;20203;-53
2022/08/08 02:08:40;;;;;;;2.20;0.67;;;;;;;15.02;47.96;98965.31;4970419;28;20301;-50
2022/08/08 02:11:14;;;;;;;1.77;0.90;;;;;;;14.90;48.67;98965.69;4951975;28;20235;-50
2022/08/08 02:13:50;;;;;;;1.70;0.80;;;;;;;14.86;49.20;98960.97;4970882;28;20207;-49
2022/08/08 02:16:26;;;;;;;0.70;0.60;;;;;;;14.89;48.30;98956.16;4971788;28;20206;-49
2022/08/08 02:19:00;;;;;;;1.97;0.67;;;;;;;15.00;48.26;98964.66;4972180;28;20209;-49
2022/08/08 02:24:45;;;;;;;2.27;0.77;;;;;;;14.91;48.27;98964.69;4956619;28;20204;-52
2022/08/08 02:27:17;;;;;;;1.03;0.77;;;;;;;15.03;49.06;98967.78;4976043;28;20584;-52
2022/08/08 02:30:03;;;;;;;0.73;0.70;;;;;;;14.97;48.56;98965.00;4960826;28;20203;-50
2022/08/08 02:33:15;;;;;;;1.43;0.73;;;;;;;15.00;48.49;98962.88;4958297;28;20234;-49
2022/08/08 02:36:12;;;;;;;1.43;0.87;;;;;;;14.99;48.61;98966.50;4969847;28;20203;-52
2022/08/08 02:38:59;;;;;;;1.20;0.80;;;;;;;15.10;48.16;98970.53;4939269;28;20227;-49
2022/08/08 02:42:19;;;;;;;0.60;0.60;;;;;;;15.04;47.88;98963.34;4954817;28;20211;-50
2022/08/08 02:45:17;;;;;;;0.70;0.67;;;;;;;15.03;48.35;98961.69;4950657;28;20273;-51
2022/08/08 02:48:35;;;;;;;1.27;0.80;;;;;;;14.94;48.08;98958.31;4970683;28;20200;-49
2022/08/08 02:51:55;;;;;;;1.33;0.70;;;;;;;15.29;47.11;98960.59;4969911;28;20206;-50
2022/08/08 02:55:15;;;;;;;2.77;0.70;;;;;;;15.14;47.95;98956.06;4946275;28;20297;-49
2022/08/08 02:58:23;;;;;;;1.23;0.70;;;;;;;15.10;48.12;98960.03;4909511;29;20220;-50
2022/08/08 03:01:30;;;;;;;1.67;0.90;;;;;;;15.05;48.45;98964.97;4910800;29;20299;-49
2022/08/08 03:04:39;;;;;;;0.97;0.80;;;;;;;15.06;48.90;98964.00;4948133;28;20552;-50
2022/08/08 03:07:42;;;;;;;1.27;1.00;;;;;;;14.94;48.89;98967.97;4969678;28;20205;-50
2022/08/08 03:10:37;;;;;;;1.13;0.90;;;;;;;14.96;48.97;98958.94;4944715;29;20199;-51
2022/08/08 03:13:37;;;;;;;1.00;0.80;;;;;;;14.90;48.64;98963.06;4959116;28;20210;-51
2022/08/08 03:16:30;;;;;;;2.63;0.97;;;;;;;14.87;48.88;98966.03;4921930;28;20293;-49
2022/08/08 03:19:15;;;;;;;4.63;0.83;;;;;;;14.81;49.32;98965.91;4955168;28;20219;-48
2022/08/08 03:21:42;;;;;;;1.53;0.90;;;;;;;14.84;49.40;98963.75;4953621;28;20224;-52
2022/08/08 03:24:10;;;;;;;1.47;0.80;;;;;;;14.76;49.62;98961.97;4956201;28;20196;-50
2022/08/08 03:26:44;;;;;;;1.33;0.80;;;;;;;14.79;49.80;98968.72;4952925;28;20199;-48
2022/08/08 03:29:19;;;;;;;1.57;0.80;;;;;;;14.78;49.48;98969.72;4968381;28;20197;-49
2022/08/08 03:34:32;;;;;;;2.63;0.70;;;;;;;14.62;49.68;98962.66;4973309;28;20206;-49
2022/08/08 03:36:59;;;;;;;1.00;0.90;;;;;;;14.73;50.34;98972.03;4957455;28;20197;-49
2022/08/08 03:39:29;;;;;;;1.00;0.83;;;;;;;14.63;50.29;98968.72;4957859;28;20237;-50
2022/08/08 03:41:56;;;;;;;1.00;0.90;;;;;;;14.67;50.28;98970.03;4972999;28;20603;-50
2022/08/08 03:44:32;;;;;;;1.57;0.80;;;;;;;14.60;50.61;98967.25;4974402;28;20230;-49
2022/08/08 03:47:01;;;;;;;1.53;1.10;;;;;;;14.71;50.03;98971.38;4976225;28;20197;-49
2022/08/08 03:49:28;;;;;;;3.90;1.00;;;;;;;14.69;50.24;98979.41;4958550;28;20197;-50
2022/08/08 03:51:56;;;;;;;3.23;1.00;;;;;;;14.68;50.18;98984.81;4974449;28;20227;-48
2022/08/08 03:54:27;;;;;;;1.83;0.90;;;;;;;14.58;50.32;98983.19;4958366;28;20210;-50
2022/08/08 03:56:56;;;;;;;1.30;0.70;;;;;;;14.77;50.06;98983.84;4974576;28;20226;-49
2022/08/08 03:59:29;;;;;;;2.33;0.80;;;;;;;14.83;50.04;98983.16;4974383;28;20312;-51
2022/08/08 04:01:57;;;;;;;1.73;0.80;;;;;;;14.90;49.17;98984.09;4975681;28;20218;-51
2022/08/08 04:04:23;;;;;;;4.20;0.90;;;;;;;14.89;49.30;98979.00;4958375;28;20211;-49
2022/08/08 04:06:56;;;;;;;0.73;0.70;;;;;;;14.81;49.98;98984.31;4950695;28;20925;-52
2022/08/08 04:09:55;;;;;;;1.90;0.87;;;;;;;14.80;49.86;98983.50;4967614;28;20550;-50
2022/08/08 04:12:23;;;;;;;0.80;0.70;;;;;;;14.83;50.70;98985.78;4972831;28;20598;-51
2022/08/08 04:15:10;;;;;;;1.67;0.90;;;;;;;14.75;50.79;98989.25;4976074;28;20287;-50
2022/08/08 04:17:55;;;;;;;1.07;0.93;;;;;;;14.70;50.69;98994.19;4975442;28;20351;-51
2022/08/08 04:20:22;;;;;;;2.33;1.10;;;;;;;14.79;51.02;98997.63;4971869;28;20221;-50
2022/08/08 04:22:49;;;;;;;1.23;0.90;;;;;;;14.75;51.15;98996.31;4974068;28;20564;-50
2022/08/08 04:25:15;;;;;;;2.73;1.20;;;;;;;14.71;50.69;98998.44;4958679;28;20213;-50
2022/08/08 04:27:44;;;;;;;1.50;1.00;;;;;;;14.70;51.15;99004.69;4962248;28;20212;-52
2022/08/08 04:30:12;;;;;;;3.00;1.00;;;;;;;14.67;50.92;99002.38;4962626;28;20198;-50
2022/08/08 04:32:39;;;;;;;1.17;0.90;;;;;;;14.70;51.36;99003.88;4973582;28;20215;-51
2022/08/08 04:35:07;;;;;;;1.90;1.20;;;;;;;14.61;51.72;99008.28;4980653;28;20290;-50
2022/08/08 04:37:38;;;;;;;1.10;1.00;;;;;;;14.55;52.11;99011.59;4957909;28;20214;-51
2022/08/08 04:40:13;;;;;;;2.27;1.63;;;;;;;14.57;52.57;99015.69;4973385;28;20817;-50
2022/08/08 04:42:50;;;;;;;4.00;1.10;;;;;;;14.54;52.49;99016.03;4960511;28;20218;-51
2022/08/08 04:45:18;;;;;;;2.63;0.90;;;;;;;14.55;52.88;99020.31;4963176;28;20257;-50
2022/08/08 04:47:45;;;;;;;3.00;0.80;;;;;;;14.55;52.39;99022.94;4978284;28;20206;-50
2022/08/08 04:50:12;;;;;;;1.50;1.00;;;;;;;14.54;52.50;99023.09;4962778;28;20202;-50
2022/08/08 04:52:40;;;;;;;1.10;1.00;;;;;;;14.50;53.22;99032.28;4958229;28;20235;-51
2022/08/08 04:55:12;;;;;;;2.60;1.10;;;;;;;14.52;53.28;99027.69;4974503;28;20683;-50
2022/08/08 04:57:39;;;;;;;2.33;0.90;;;;;;;14.48;53.55;99035.09;4972978;28;20698;-50
2022/08/08 05:00:11;;;;;;;1.17;1.00;;;;;;;14.50;53.51;99038.38;4973652;28;20234;-52
2022/08/08 05:02:38;;;;;;;2.23;1.50;;;;;;;14.46;53.20;99050.19;4973220;28;20232;-50
2022/08/08 05:05:05;;;;;;;3.63;1.00;;;;;;;14.51;54.18;99049.69;4969358;28;20221;-50
2022/08/08 05:07:35;;;;;;;2.13;1.00;;;;;;;14.53;54.34;99053.78;4966013;28;20222;-49
2022/08/08 05:10:02;;;;;;;1.10;1.00;;;;;;;14.53;54.39;99055.59;4959204;28;20204;-50
2022/08/08 05:12:33;;;;;;;2.93;1.03;;;;;;;14.56;54.76;99061.34;4973015;28;20222;-54
2022/08/08 05:15:01;;;;;;;1.10;0.73;;;;;;;14.56;55.09;99065.75;4971883;28;20204;-54
2022/08/08 05:17:29;;;;;;;2.20;1.07;;;;;;;14.58;54.86;99061.16;4962230;28;20207;-54
2022/08/08 05:19:56;;;;;;;1.60;1.03;;;;;;;14.60;54.78;99061.81;4971226;28;20481;-54
2022/08/08 05:22:28;;;;;;;1.40;0.93;;;;;;;14.60;55.25;99060.03;4972955;28;20218;-50
2022/08/08 05:24:56;;;;;;;2.17;1.13;;;;;;;14.60;55.61;99060.03;4979354;28;20227;-50
2022/08/08 05:27:23;;;;;;;4.43;1.10;;;;;;;14.59;56.05;99063.66;4963982;28;20533;-51
2022/08/08 05:29:52;;;;;;;3.30;1.40;;;;;;;14.64;56.55;99073.63;4965941;28;20194;-50
2022/08/08 05:32:25;;;;;;;3.17;1.33;;;;;;;14.68;56.03;99068.88;4965994;28;20244;-50
2022/08/08 05:34:58;;;;;;;2.40;1.23;;;;;;;14.66;56.46;99074.28;4974196;28;20699;-53
2022/08/08 05:37:32;;;;;;;1.83;1.20;;;;;;;14.68;55.92;99071.50;4961139;28;20277;-50
2022/08/08 05:40:03;;;;;;;2.13;0.90;;;;;;;14.67;56.70;99075.94;4972839;28;20231;-51
2022/08/08 05:42:37;;;;;;;2.13;0.97;;;;;;;14.69;56.59;99068.75;4972639;28;20270;-51
2022/08/08 05:45:05;;;;;;;2.40;1.03;;;;;;;14.75;56.08;99077.78;4968026;28;20558;-50
2022/08/08 05:47:34;;;;;;;7.33;1.20;;;;;;;14.74;57.27;99076.13;4975964;28;20609;-52
2022/08/08 05:50:05;;;;;;;1.47;1.07;;;;;;;14.80;56.76;99075.47;4956709;28;20201;-50
2022/08/08 05:52:34;;;;;;;1.17;1.07;;;;;;;14.83;55.93;99077.78;4964125;28;20315;-50
2022/08/08 05:55:00;;;;;;;2.03;1.10;;;;;;;14.88;55.57;99079.88;4962128;28;20200;-50
2022/08/08 05:57:29;;;;;;;1.67;1.03;;;;;;;14.93;55.39;99080.19;4971810;28;20690;-53
2022/08/08 05:59:57;;;;;;;7.20;1.53;;;;;;;14.97;55.61;99081.50;4955859;28;20284;-52
2022/08/08 06:05:23;;;;;;;3.90;1.10;;;;;;;15.13;55.02;99092.97;4967018;28;20196;-50
2022/08/08 06:07:51;;;;;;;3.43;1.23;;;;;;;15.18;55.10;99090.66;4973626;28;20197;-50
2022/08/08 06:10:19;;;;;;;2.23;1.00;;;;;;;15.25;55.46;99099.50;4973538;28;20247;-51
2022/08/08 06:12:48;;;;;;;2.80;1.20;;;;;;;15.34;55.19;99095.88;4955639;28;20236;-52
2022/08/08 06:15:15;;;;;;;4.03;1.20;;;;;;;15.49;54.80;99103.00;4973188;28;20194;-52
2022/08/08 06:17:42;;;;;;;1.93;1.00;;;;;;;15.59;54.89;99103.63;4947441;28;20199;-51
2022/08/08 06:20:12;;;;;;;3.20;1.20;;;;;;;15.68;54.79;99109.69;4971735;28;20219;-51
2022/08/08 06:22:40;;;;;;;3.83;1.53;;;;;;;15.76;54.41;99109.66;4953663;28;20218;-52
2022/08/08 06:25:14;;;;;;;3.43;1.20;;;;;;;15.83;54.09;99122.94;4955346;28;20213;-50
2022/08/08 06:27:46;;;;;;;2.30;1.20;;;;;;;15.87;53.49;99116.34;4971781;28;20582;-52
2022/08/08 06:30:15;;;;;;;2.87;1.23;;;;;;;16.00;53.31;99117.59;4955731;28;20249;-51
2022/08/08 06:32:47;;;;;;;1.60;1.10;;;;;;;16.11;52.80;99122.47;4973483;28;20247;-50
2022/08/08 06:35:16;;;;;;;5.37;1.20;;;;;;;16.23;52.19;99122.88;4971440;28;20204;-51
2022/08/08 06:37:52;;;;;;;3.30;1.20;;;;;;;16.39;51.61;99127.22;4965107;28;20563;-50
2022/08/08 06:40:24;;;;;;;2.30;1.30;;;;;;;16.57;51.52;99131.34;4974651;28;20224;-51
2022/08/08 06:42:54;;;;;;;2.80;1.17;;;;;;;16.79;50.96;99134.97;4974769;28;20253;-50
2022/08/08 06:45:27;;;;;;;1.33;1.23;;;;;;;16.98;50.60;99131.03;4961891;28;20226;-51
2022/08/08 06:47:53;;;;;;;2.40;1.10;;;;;;;17.18;49.13;99133.13;4955402;28;20204;-51
2022/08/08 06:50:20;;;;;;;2.03;1.20;;;;;;;17.36;49.12;99138.03;4971629;28;20548;-53
2022/08/08 06:52:48;;;;;;;4.33;0.93;;;;;;;17.57;48.91;99139.94;4958174;28;20230;-50
2022/08/08 06:55:18;;;;;;;1.70;1.30;;;;;;;17.65;48.70;99139.03;4955319;28;20207;-50
2022/08/08 06:57:44;;;;;;;1.50;1.40;;;;;;;17.80;48.55;99147.75;4956062;28;20216;-53
2022/08/08 07:00:12;;;;;;;1.50;1.20;;;;;;;17.97;47.89;99140.41;4955470;28;20807;-51
2022/08/08 07:02:43;;;;;;;2.97;1.20;;;;;;;18.13;47.72;99152.59;4970400;28;20320;-50
2022/08/08 07:05:15;;;;;;;2.30;1.00;;;;;;;18.27;47.77;99147.44;4955247;28;20201;-50
2022/08/08 07:07:56;;;;;;;13.60;1.77;;;;;;;18.42;45.84;99152.69;4969013;28;20206;-52
2022/08/08 07:10:35;;;;;;;5.87;1.40;;;;;;;18.59;46.17;99150.59;4971311;28;20194;-50
2022/08/08 07:13:05;;;;;;;2.17;1.00;;;;;;;18.68;46.33;99151.28;4957626;28;20264;-52
2022/08/08 07:15:41;;;;;;;3.43;1.53;;;;;;;18.63;46.68;99151.03;4957571;28;20250;-52
2022/08/08 07:18:09;;;;;;;5.37;1.20;;;;;;;18.82;44.28;99150.38;4973050;28;20646;-50
2022/08/08 07:20:39;;;;;;;1.90;1.20;;;;;;;18.97;44.53;99146.84;4952381;28;20223;-52
2022/08/08 07:23:13;;;;;;;4.67;1.10;;;;;;;19.07;43.78;99151.81;4969647;28;20223;-50
2022/08/08 07:25:44;;;;;;;1.20;1.10;;;;;;;19.24;43.44;99152.31;4971754;28;20675;-50
2022/08/08 07:28:14;;;;;;;4.00;1.20;;;;;;;19.34;42.62;99158.09;4970716;28;20204;-50
2022/08/08 07:30:42;;;;;;;1.37;1.07;;;;;;;19.47;42.05;99159.97;4969849;28;20251;-50
2022/08/08 07:33:11;;;;;;;3.17;1.30;;;;;;;19.54;42.19;99158.19;4950578;28;20224;-50
2022/08/08 07:35:40;;;;;;;3.93;1.40;;;;;;;19.66;41.85;99169.00;4973577;28;20190;-50
2022/08/08 07:38:10;;;;;;;5.53;1.20;;;;;;;19.70;41.70;99162.31;4974797;28;20607;-50
2022/08/08 07:40:47;;;;;;;3.57;1.00;;;;;;;19.83;41.46;99164.22;4960820;28;20216;-51
2022/08/08 07:43:16;;;;;;;2.43;1.00;;;;;;;19.92;40.67;99175.47;4963568;28;20301;-50
2022/08/08 07:45:46;;;;;;;2.83;1.40;;;;;;;19.96;41.08;99170.63;4971006;28;20683;-50
2022/08/08 07:48:13;;;;;;;5.80;1.20;;;;;;;20.00;40.07;99164.69;4972568;28;20199;-51
2022/08/08 07:50:42;;;;;;;3.33;1.20;;;;;;;20.11;40.33;99173.09;4955402;28;20688;-51
2022/08/08 07:53:17;;;;;;;1.53;1.10;;;;;;;20.10;40.40;99172.28;4954680;28;20220;-50
2022/08/08 07:55:47;;;;;;;2.43;1.30;;;;;;;20.18;39.73;99172.09;4953899;28;20319;-51
2022/08/08 07:58:21;;;;;;;8.60;1.20;;;;;;;20.34;40.29;99178.88;4961178;28;20243;-51
2022/08/08 08:00:51;;;;;;;2.10;1.20;;;;;;;20.44;40.82;99180.31;4969015;28;20206;-54
2022/08/08 08:03:31;;;;;;;2.57;1.17;;;;;;;20.50;41.17;99180.31;4975531;28;20203;-52
2022/08/08 08:06:00;;;;;;;1.40;0.90;;;;;;;20.62;41.19;99187.66;4933875;28;20202;-51
2022/08/08 08:08:39;;;;;;;1.83;1.10;;;;;;;20.71;41.45;99177.66;4969807;28;20283;-51
2022/08/08 08:11:12;;;;;;;4.00;1.00;;;;;;;20.85;41.38;99183.84;4955599;28;20733;-51
2022/08/08 08:13:51;;;;;;;3.30;1.00;;;;;;;21.03;40.69;99189.34;4970145;28;20204;-51
2022/08/08 08:16:22;;;;;;;2.30;1.00;;;;;;;21.09;40.42;99190.34;4979594;28;20244;-52
2022/08/08 08:18:53;;;;;;;5.80;1.23;;;;;;;21.09;40.69;99180.56;4969508;28;20671;-52
2022/08/08 08:21:22;;;;;;;3.77;0.90;;;;;;;21.27;40.19;99191.56;4957465;28;20233;-51
2022/08/08 08:23:49;;;;;;;1.73;1.00;;;;;;;21.30;39.80;99188.47;4966551;28;20565;-52
2022/08/08 08:26:18;;;;;;;1.10;1.00;;;;;;;21.36;40.19;99182.34;4975383;28;20195;-51
2022/08/08 08:28:45;;;;;;;2.10;1.00;;;;;;;21.45;40.54;99183.75;4968664;28;20210;-53
2022/08/08 08:31:13;;;;;;;4.87;1.10;;;;;;;21.47;39.68;99183.53;4974011;28;20241;-52
2022/08/08 08:33:40;;;;;;;6.10;1.10;;;;;;;21.57;39.89;99180.44;4975510;28;20316;-52
2022/08/08 08:36:09;;;;;;;1.87;1.10;;;;;;;21.73;40.07;99192.47;4966524;28;20258;-52
2022/08/08 08:38:37;;;;;;;3.00;1.20;;;;;;;21.72;39.08;99185.53;4976646;28;20676;-53
2022/08/08 08:41:11;;;;;;;1.53;1.20;;;;;;;21.77;39.41;99191.84;4974205;28;20332;-51
2022/08/08 08:43:42;;;;;;;2.77;0.97;;;;;;;21.86;39.53;99181.81;4953373;28;20204;-50
2022/08/08 08:46:11;;;;;;;1.70;0.90;;;;;;;21.91;39.03;99178.50;4974391;28;20310;-52
2022/08/08 08:48:40;;;;;;;2.70;1.10;;;;;;;22.00;38.89;99190.50;4971072;28;20283;-50
2022/08/08 08:51:11;;;;;;;4.10;1.00;;;;;;;22.10;39.16;99180.25;4962972;28;20204;-52
2022/08/08 08:53:43;;;;;;;2.23;0.93;;;;;;;22.22;38.48;99176.91;4966113;28;20203;-52
2022/08/08 08:56:16;;;;;;;4.43;1.10;;;;;;;22.34;37.94;99187.66;4972143;28;20229;-51
2022/08/08 08:58:48;;;;;;;3.77;1.00;;;;;;;22.49;38.26;99182.09;4957413;28;20208;-50
2022/08/08 09:01:20;;;;;;;4.27;1.00;;;;;;;22.59;38.48;99171.78;4978410;28;20261;-54
2022/08/08 09:03:50;;;;;;;3.13;1.20;;;;;;;22.72;38.06;99176.19;4959446;28;20210;-51
2022/08/08 09:06:25;;;;;;;5.07;1.20;;;;;;;22.80;38.02;99178.56;4972688;28;20238;-51
2022/08/08 09:08:59;;;;;;;2.43;1.00;;;;;;;22.90;37.75;99172.75;4974598;28;20682;-52
2022/08/08 09:11:30;;;;;;;3.87;1.10;;;;;;;23.02;37.73;99169.38;4979575;28;20219;-51
2022/08/08 09:14:00;;;;;;;2.17;1.13;;;;;;;23.16;37.47;99178.88;4958513;28;20244;-51
2022/08/08 09:16:30;;;;;;;7.70;1.20;;;;;;;23.29;37.00;99177.97;4979331;28;20224;-50
2022/08/08 09:18:59;;;;;;;1.53;1.20;;;;;;;23.37;37.15;99175.00;4980844;28;20681;-50
2022/08/08 09:21:28;;;;;;;6.87;1.10;;;;;;;23.59;36.57;99161.22;4976397;28;20253;-50
2022/08/08 09:23:55;;;;;;;5.00;1.23;;;;;;;23.76;36.36;99172.13;4961085;28;20778;-50
2022/08/08 09:26:37;;;;;;;4.73;1.13;;;;;;;23.95;35.89;99167.56;4964385;28;20195;-53
2022/08/08 09:29:07;;;;;;;2.73;1.13;;;;;;;24.17;35.56;99170.56;4973298;28;20589;-50
2022/08/08 09:31:50;;;;;;;3.27;1.10;;;;;;;24.28;35.34;99163.66;4953171;28;20227;-50
2022/08/08 09:34:19;;;;;;;1.53;1.10;;;;;;;24.41;34.91;99165.28;4972447;28;20599;-50
2022/08/08 09:36:48;;;;;;;2.90;1.40;;;;;;;24.50;34.70;99162.28;4956873;28;20185;-50
2022/08/08 09:39:20;;;;;;;2.43;0.90;;;;;;;24.45;34.97;99155.78;4973150;28;20193;-50
2022/08/08 09:42:01;;;;;;;1.33;1.20;;;;;;;24.54;34.74;99164.25;4975347;28;20230;-50
2022/08/08 09:44:49;;;;;;;4.53;1.10;;;;;;;24.55;35.10;99151.75;4973348;28;20200;-50
2022/08/08 09:47:19;;;;;;;4.80;1.23;;;;;;;24.81;34.77;99147.06;4973071;28;20230;-51
2022/08/08 09:49:49;;;;;;;6.70;1.30;;;;;;;24.95;33.95;99150.28;4973264;28;20194;-50
2022/08/08 09:52:19;;;;;;;3.80;1.20;;;;;;;25.06;33.87;99162.81;4973341;28;20239;-51
2022/08/08 09:54:45;;;;;;;3.83;1.20;;;;;;;24.97;34.22;99154.34;4973477;28;20198;-50
2022/08/08 09:57:17;;;;;;;4.57;1.43;;;;;;;25.10;33.97;99144.47;4973373;28;20208;-52
2022/08/08 09:59:50;;;;;;;5.43;1.30;;;;;;;25.26;33.67;99145.63;4973254;28;20203;-53
2022/08/08 10:02:21;;;;;;;2.43;1.10;;;;;;;25.50;32.77;99146.41;4972869;28;20239;-50
2022/08/08 10:04:48;;;;;;;2.47;1.27;;;;;;;25.52;32.49;99140.81;4973994;28;20276;-54
2022/08/08 10:07:16;;;;;;;1.70;1.10;;;;;;;25.77;32.42;99143.19;4976226;28;20192;-51
2022/08/08 10:09:49;;;;;;;2.87;1.20;;;;;;;25.93;32.08;99142.44;4976037;28;20719;-52
2022/08/08 10:12:17;;;;;;;7.73;1.40;;;;;;;26.23;31.48;99140.56;4975612;28;20219;-52
2022/08/08 10:14:45;;;;;;;1.70;1.30;;;;;;;26.16;32.41;99135.34;4974993;28;20794;-51
2022/08/08 10:17:12;;;;;;;2.97;1.37;;;;;;;26.02;32.38;99131.31;4972596;28;20659;-52
2022/08/08 10:19:40;;;;;;;3.40;1.27;;;;;;;26.03;32.77;99136.44;4957073;28;20195;-50
2022/08/08 10:22:08;;;;;;;3.63;1.30;;;;;;;26.00;32.41;99136.09;4971906;28;20665;-52
2022/08/08 10:24:36;;;;;;;5.87;1.30;;;;;;;25.93;32.40;99138.94;4976002;28;20194;-52
2022/08/08 10:27:05;;;;;;;5.87;1.50;;;;;;;25.84;32.63;99124.31;4978876;28;20199;-51
2022/08/08 10:29:40;;;;;;;2.93;1.10;;;;;;;26.04;33.00;99121.19;4975851;28;20199;-51
2022/08/08 10:34:58;;;;;;;4.47;1.40;;;;;;;26.58;31.54;99118.09;4975032;28;20212;-53
2022/08/08 10:37:27;;;;;;;1.93;1.23;;;;;;;26.53;31.43;99113.47;4972846;28;20199;-50
2022/08/08 10:39:55;;;;;;;4.23;1.30;;;;;;;26.69;31.18;99119.06;4972617;28;20666;-51
2022/08/08 10:42:24;;;;;;;3.35;1.40;;;;;;;26.84;30.52;99123.06;4970094;28;20307;-51
2022/08/08 10:45:00;;;;;;;2.70;1.20;;;;;;;26.94;30.45;99124.00;4972588;28;20215;-53
2022/08/08 10:47:28;;;;;;;4.40;1.48;;;;;;;26.89;30.58;99113.22;4973539;28;20260;-52
2022/08/08 10:49:57;;;;;;;2.83;1.20;;;;;;;27.01;30.65;99107.78;4974274;28;20216;-52
2022/08/08 10:52:25;;;;;;;3.47;1.00;;;;;;;27.09;30.64;99110.00;4974836;28;20207;-51
2022/08/08 10:54:53;;;;;;;2.90;1.50;;;;;;;27.14;30.58;99111.13;4977165;28;20291;-52
2022/08/08 10:57:20;;;;;;;5.53;1.30;;;;;;;27.22;29.45;99097.28;4977001;28;20665;-54
2022/08/08 10:59:51;;;;;;;2.17;1.20;;;;;;;27.45;28.48;99095.41;4972669;28;20662;-51
2022/08/08 11:02:23;;;;;;;1.53;1.10;;;;;;;27.44;27.84;99093.81;4970841;28;20302;-52
2022/08/08 11:04:52;;;;;;;6.07;1.20;;;;;;;27.51;29.28;99097.13;4971190;28;20191;-51
2022/08/08 11:07:29;;;;;;;4.18;1.17;;;;;;;27.57;28.85;99092.63;4972477;28;20191;-51
2022/08/08 11:09:56;;;;;;;4.00;1.33;;;;;;;27.62;28.65;99106.91;4971597;28;20194;-54
2022/08/08 11:12:23;;;;;;;1.45;1.30;;;;;;;27.41;29.13;99095.13;4969685;28;20554;-51
2022/08/08 11:14:51;;;;;;;3.87;1.40;;;;;;;27.54;29.13;99102.81;4971899;28;20205;-54
2022/08/08 11:17:24;;;;;;;2.97;1.30;;;;;;;27.73;29.22;99102.44;4970907;28;20219;-53
2022/08/08 11:19:53;;;;;;;2.80;1.37;;;;;;;27.79;27.99;99090.72;4971048;28;20235;-50
2022/08/08 11:22:29;;;;;;;2.00;1.30;;;;;;;27.79;28.33;99089.91;4971357;28;20219;-54
2022/08/08 11:25:00;;;;;;;4.40;1.55;;;;;;;27.84;28.73;99090.75;4970886;28;20233;-52
2022/08/08 11:27:31;;;;;;;4.78;1.30;;;;;;;27.82;28.71;99078.69;4970884;28;20260;-51
2022/08/08 11:30:00;;;;;;;3.15;1.33;;;;;;;28.14;28.52;99085.94;4971648;28;20260;-56
2022/08/08 11:32:30;;;;;;;4.60;1.60;;;;;;;28.01;29.13;99081.00;4969530;28;20224;-54
2022/08/08 11:35:09;;;;;;;8.63;1.38;;;;;;;27.85;29.97;99056.72;4971055;28;20234;-51
2022/08/08 11:37:38;;;;;;;1.80;1.25;;;;;;;28.15;27.93;99055.38;4972384;28;20227;-50
2022/08/08 11:40:07;;;;;;;2.55;1.20;;;;;;;28.37;26.75;99062.50;4971683;28;20246;-53
2022/08/08 11:42:35;;;;;;;2.50;1.20;;;;;;;28.37;27.21;99046.41;4971078;28;20240;-50
2022/08/08 11:45:02;;;;;;;1.70;1.10;;;;;;;28.35;26.38;99041.31;4969654;28;20226;-52
2022/08/08 11:47:29;;;;;;;2.28;1.30;;;;;;;28.22;25.90;99044.44;4970415;28;20252;-53
2022/08/08 11:50:00;;;;;;;2.55;1.15;;;;;;;28.38;25.47;99061.44;4974109;28;20238;-51
2022/08/08 11:52:29;;;;;;;1.40;1.30;;;;;;;28.54;26.16;99071.22;4975746;28;20239;-51
2022/08/08 11:54:56;;;;;;;2.58;1.10;;;;;;;28.81;25.43;99067.66;4975765;28;20219;-51
2022/08/08 11:57:26;;;;;;;2.50;1.20;;;;;;;28.85;26.40;99058.00;4962496;28;20223;-54
2022/08/08 11:59:55;;;;;;;2.20;1.25;;;;;;;28.77;25.17;99053.13;4981864;28;20287;-52
2022/08/08 12:02:25;;;;;;;1.30;1.10;;;;;;;29.01;25.70;99047.31;4977498;28;20229;-51
2022/08/08 12:05:05;;;;;;;2.63;1.08;;;;;;;29.14;24.97;99059.44;4977052;28;20678;-54
2022/08/08 12:07:44;;;;;;;1.67;1.23;;;;;;;28.76;24.79;99051.50;4975043;28;20280;-54
2022/08/08 12:10:12;;;;;;;2.25;1.10;;;;;;;28.70;24.56;99050.63;4975739;28;20200;-55
2022/08/08 12:12:42;;;;;;;3.40;1.23;;;;;;;28.63;24.27;99049.25;4973638;28;20205;-55
2022/08/08 12:15:10;;;;;;;5.15;1.30;;;;;;;28.60;24.31;99047.91;4974488;28;20303;-53
2022/08/08 12:17:41;;;;;;;2.58;1.40;;;;;;;28.78;24.52;99046.69;4975062;28;20264;-54
2022/08/08 12:20:09;;;;;;;1.77;1.13;;;;;;;29.01;24.35;99050.81;4974977;28;20192;-51
2022/08/08 12:22:49;;;;;;;1.13;1.05;;;;;;;28.78;24.23;99049.38;4975757;28;20290;-52
2022/08/08 12:25:21;;;;;;;2.08;0.85;;;;;;;28.93;24.26;99056.69;4975483;28;20660;-51